Time;durP1;ratioP1;P1;durP2;ratioP2;P2;SDS_P1;SDS_P2;PMS_P1;PMS_P2;Temp;Humidity;BMP_temperature;BMP_pressure;BME280_temperature;BME280_humidity;BME280_pressure;Samples;Min_cycle;Max_cycle;Signal;HPM_P1;HPM_P2
2021/03/20 00:01:02;;;;;;;4.88;2.78;;;0.10;99.90;;;;;;5040894;28;20056;-92
2021/03/20 00:03:28;;;;;;;8.32;3.50;;;0.10;99.90;;;;;;5052878;28;20087;-93
2021/03/20 00:05:54;;;;;;;8.10;3.30;;;0.00;99.90;;;;;;5037738;28;20049;-91
2021/03/20 00:08:22;;;;;;;6.15;3.40;;;0.20;99.90;;;;;;5030351;28;20046;-93
2021/03/20 00:10:50;;;;;;;10.20;3.58;;;-0.10;99.90;;;;;;5018459;28;20057;-92
2021/03/20 00:13:38;;;;;;;6.97;3.45;;;0.30;99.90;;;;;;5060056;28;20045;-93
2021/03/20 00:16:25;;;;;;;3.63;2.92;;;-0.10;99.90;;;;;;4997071;28;20050;-92
2021/03/20 00:18:51;;;;;;;4.82;3.05;;;0.20;99.90;;;;;;5024209;28;20072;-92
2021/03/20 00:21:23;;;;;;;6.93;3.05;;;-0.20;99.90;;;;;;5038301;28;20144;-92
2021/03/20 00:23:49;;;;;;;15.45;3.35;;;-0.20;99.90;;;;;;5041563;28;20045;-93
2021/03/20 00:26:16;;;;;;;11.77;3.28;;;-0.20;99.90;;;;;;5034384;28;20051;-93
2021/03/20 00:28:44;;;;;;;4.55;3.38;;;-0.20;99.90;;;;;;5037652;28;20824;-93
2021/03/20 00:31:12;;;;;;;7.50;3.38;;;-0.20;99.90;;;;;;5048945;28;20073;-93
2021/03/20 00:33:57;;;;;;;13.25;3.42;;;-0.30;99.90;;;;;;5049341;28;20034;-94
2021/03/20 01:13:42;;;;;;;6.35;3.67;;;-0.60;99.90;;;;;;4859066;29;20040;-92
2021/03/20 01:20:36;;;;;;;6.47;3.33;;;-0.80;99.90;;;;;;4846813;29;20125;-94
2021/03/20 01:27:30;;;;;;;10.00;3.75;;;-0.70;99.90;;;;;;4884442;29;20055;-94
2021/03/20 01:30:30;;;;;;;8.45;3.45;;;-0.80;99.90;;;;;;4866855;29;20089;-92
2021/03/20 01:32:59;;;;;;;4.22;3.25;;;-0.80;99.90;;;;;;4927096;28;20055;-93
2021/03/20 01:35:31;;;;;;;10.32;3.88;;;-0.20;99.90;;;;;;4966370;28;20061;-92
2021/03/20 01:37:58;;;;;;;10.35;4.22;;;-0.20;99.90;;;;;;4973046;28;20109;-92
2021/03/20 01:40:35;;;;;;;11.25;4.45;;;-0.20;99.90;;;;;;4972483;28;20054;-92
2021/03/20 01:43:01;;;;;;;5.70;3.30;;;-0.60;99.90;;;;;;4973080;28;20058;-92
2021/03/20 01:45:30;;;;;;;8.57;3.60;;;-0.50;99.90;;;;;;4974603;28;20058;-92
2021/03/20 01:47:59;;;;;;;6.50;3.88;;;-0.60;99.90;;;;;;4964864;28;20479;-92
2021/03/20 01:50:33;;;;;;;5.38;3.65;;;-0.60;99.90;;;;;;4955916;28;20053;-92
2021/03/20 01:53:05;;;;;;;8.95;4.25;;;0.50;99.90;;;;;;4972667;28;20125;-92
2021/03/20 01:55:36;;;;;;;8.23;3.92;;;-0.70;99.90;;;;;;4972062;28;20396;-92
2021/03/20 02:46:21;;;;;;;11.05;4.18;;;-0.70;99.90;;;;;;4830114;29;20052;-92
2021/03/20 02:49:12;;;;;;;8.23;4.45;;;-0.70;99.90;;;;;;4893969;28;20385;-93
2021/03/20 02:51:54;;;;;;;4.05;3.53;;;-0.60;99.90;;;;;;4956060;28;20521;-92
2021/03/20 03:15:40;;;;;;;8.05;3.75;;;-0.50;99.90;;;;;;5678885;23;20078;-93
2021/03/20 03:18:16;;;;;;;;;;;-0.30;99.90;;;;;;4956875;28;20054;-92
2021/03/20 03:20:49;;;;;;;12.05;4.32;;;-0.20;99.90;;;;;;4972420;28;20295;-95
2021/03/20 03:23:17;;;;;;;;;;;-0.10;99.90;;;;;;4969176;28;20117;-94
2021/03/20 03:25:49;;;;;;;11.75;3.85;;;-0.30;99.90;;;;;;4933863;28;20563;-95
2021/03/20 03:28:24;;;;;;;11.23;4.47;;;0.40;99.90;;;;;;4972223;28;20414;-95
2021/03/20 03:31:02;;;;;;;7.28;3.97;;;-0.40;99.90;;;;;;4955897;28;20047;-95
2021/03/20 03:33:56;;;;;;;5.72;3.47;;;-0.30;99.90;;;;;;4930144;28;20364;-94
2021/03/20 03:36:49;;;;;;;6.97;4.22;;;-0.60;99.90;;;;;;4940643;28;20142;-95
2021/03/20 03:39:20;;;;;;;8.23;3.92;;;-0.30;99.90;;;;;;4968931;28;20522;-96
2021/03/20 03:41:46;;;;;;;10.68;3.85;;;-0.40;99.90;;;;;;4945414;28;20097;-95
2021/03/20 03:44:12;;;;;;;8.80;4.68;;;-0.40;99.90;;;;;;4960178;28;20098;-95
2021/03/20 03:46:44;;;;;;;5.55;4.10;;;0.10;99.90;;;;;;4936534;28;20198;-95
2021/03/20 03:49:17;;;;;;;12.48;4.60;;;0.10;99.90;;;;;;4939922;28;20053;-94
2021/03/20 03:51:43;;;;;;;7.72;4.20;;;-0.30;99.90;;;;;;4942267;28;20146;-95
2021/03/20 03:54:09;;;;;;;11.73;3.95;;;0.40;99.90;;;;;;4959002;28;20117;-94
2021/03/20 03:56:44;;;;;;;6.97;4.18;;;0.30;99.90;;;;;;4958706;28;20055;-95
2021/03/20 03:59:14;;;;;;;5.35;3.72;;;-0.20;99.90;;;;;;4983947;28;20056;-95
2021/03/20 04:02:14;;;;;;;7.13;3.97;;;-0.20;99.90;;;;;;4961496;28;20035;-95
2021/03/20 04:05:11;;;;;;;9.15;3.75;;;-0.20;99.90;;;;;;4958255;28;20041;-95
2021/03/20 04:08:01;;;;;;;5.93;3.60;;;-0.10;99.90;;;;;;4904634;29;20115;-95
2021/03/20 04:10:52;;;;;;;7.37;3.87;;;0.10;99.90;;;;;;4953071;28;20188;-95
2021/03/20 04:13:36;;;;;;;9.30;3.63;;;0.10;99.90;;;;;;4960803;28;20066;-94
2021/03/20 04:16:15;;;;;;;11.35;4.30;;;-0.20;99.90;;;;;;4959183;28;20047;-94
2021/03/20 04:19:03;;;;;;;8.88;3.78;;;1.00;99.90;;;;;;4986880;28;20049;-94
2021/03/20 04:21:29;;;;;;;7.25;4.20;;;0.20;99.90;;;;;;4957519;28;20059;-92
2021/03/20 04:24:04;;;;;;;6.88;3.42;;;0.20;99.90;;;;;;4967081;28;20078;-93
2021/03/20 04:26:56;;;;;;;7.70;3.97;;;0.20;99.90;;;;;;4959920;28;20046;-93
2021/03/20 04:29:32;;;;;;;7.43;3.83;;;0.30;99.90;;;;;;4972533;28;20631;-93
2021/03/20 04:32:03;;;;;;;8.55;3.88;;;0.30;99.90;;;;;;4973819;28;20149;-92
2021/03/20 04:34:41;;;;;;;7.95;4.55;;;1.00;99.90;;;;;;4956972;28;21031;-93
2021/03/20 04:37:12;;;;;;;14.70;4.53;;;0.20;99.90;;;;;;4983098;28;20038;-93
2021/03/20 04:39:41;;;;;;;;;;;0.20;99.90;;;;;;4977169;28;20046;-93
2021/03/20 04:42:09;;;;;;;9.60;4.38;;;0.10;99.90;;;;;;4974614;28;20290;-92
2021/03/20 04:44:39;;;;;;;6.53;4.13;;;0.10;99.90;;;;;;4987201;28;20043;-93
2021/03/20 04:47:16;;;;;;;9.15;3.85;;;0.50;99.90;;;;;;4974468;28;20155;-92
2021/03/20 04:50:18;;;;;;;7.25;3.95;;;0.10;99.90;;;;;;4969164;28;20042;-93
2021/03/20 04:52:47;;;;;;;7.65;4.80;;;0.20;99.90;;;;;;4880346;29;20044;-92
2021/03/20 04:55:14;;;;;;;7.03;4.15;;;0.50;99.90;;;;;;4956284;28;20054;-92
2021/03/20 04:58:15;;;;;;;9.38;4.45;;;0.50;99.90;;;;;;4974730;28;20043;-92
2021/03/20 05:00:45;;;;;;;6.00;4.00;;;0.00;99.90;;;;;;4986097;28;20490;-92
2021/03/20 05:03:27;;;;;;;8.68;4.00;;;0.10;99.90;;;;;;4969836;28;20039;-93
2021/03/20 05:05:57;;;;;;;6.43;4.53;;;0.00;99.90;;;;;;4970305;28;20047;-93
2021/03/20 05:08:34;;;;;;;5.47;4.20;;;0.00;99.90;;;;;;4968866;28;20042;-93
2021/03/20 05:11:12;;;;;;;11.98;4.63;;;0.30;99.90;;;;;;4977958;28;20042;-92
2021/03/20 05:13:41;;;;;;;8.55;4.30;;;0.00;99.90;;;;;;4987205;28;20042;-93
2021/03/20 05:16:27;;;;;;;5.90;3.97;;;0.00;99.90;;;;;;4974954;28;20061;-94
2021/03/20 05:18:54;;;;;;;8.70;4.45;;;0.00;99.90;;;;;;4986666;28;20054;-94
2021/03/20 05:21:26;;;;;;;5.50;4.35;;;0.20;99.90;;;;;;4986929;28;20494;-93
2021/03/20 05:23:53;;;;;;;9.20;4.55;;;0.00;99.90;;;;;;4974535;28;20073;-94
2021/03/20 05:26:19;;;;;;;8.38;3.90;;;0.10;99.90;;;;;;4986336;28;20043;-92
2021/03/20 05:28:45;;;;;;;5.78;4.10;;;0.00;99.90;;;;;;4962720;28;20046;-92
2021/03/20 05:31:11;;;;;;;5.72;3.80;;;0.10;99.90;;;;;;4973166;28;20039;-91
2021/03/20 05:33:39;;;;;;;13.77;3.90;;;0.20;99.90;;;;;;4974124;28;20090;-93
2021/03/20 05:36:07;;;;;;;11.00;3.80;;;0.40;99.90;;;;;;4968089;28;20042;-93
2021/03/20 05:38:33;;;;;;;9.60;3.63;;;0.10;99.90;;;;;;4985318;28;20046;-93
2021/03/20 05:41:05;;;;;;;7.47;3.40;;;0.10;99.90;;;;;;4945737;28;20047;-93
2021/03/20 05:43:57;;;;;;;10.20;3.58;;;0.20;99.90;;;;;;4955402;28;20531;-93
2021/03/20 05:46:48;;;;;;;6.90;3.95;;;0.20;99.90;;;;;;4970586;28;20451;-91
2021/03/20 05:49:32;;;;;;;6.20;3.50;;;0.30;99.90;;;;;;4961065;28;20133;-91
2021/03/20 05:52:17;;;;;;;5.10;3.50;;;0.30;99.90;;;;;;4968491;28;20053;-92
2021/03/20 05:55:12;;;;;;;8.23;3.58;;;0.30;99.90;;;;;;4966847;28;20046;-90
2021/03/20 05:57:46;;;;;;;11.10;3.60;;;0.30;99.90;;;;;;4962565;28;20061;-92
2021/03/20 06:00:19;;;;;;;7.65;3.58;;;0.40;99.90;;;;;;4970450;28;20043;-94
2021/03/20 06:03:12;;;;;;;7.47;3.47;;;0.40;99.90;;;;;;4968932;28;20130;-92
2021/03/20 06:05:52;;;;;;;5.15;3.22;;;0.60;99.90;;;;;;4969897;28;20050;-92
2021/03/20 06:08:38;;;;;;;7.33;3.80;;;0.40;99.90;;;;;;4984683;28;20451;-92
2021/03/20 06:11:14;;;;;;;7.55;3.38;;;0.50;99.90;;;;;;4923633;28;20290;-92
2021/03/20 06:14:03;;;;;;;11.23;3.67;;;0.50;99.90;;;;;;4970448;28;20066;-90
2021/03/20 06:16:36;;;;;;;4.80;3.15;;;0.50;99.90;;;;;;4979966;28;20070;-90
2021/03/20 06:19:23;;;;;;;4.32;2.97;;;0.50;99.90;;;;;;4968777;28;20050;-90
2021/03/20 06:22:17;;;;;;;3.67;3.38;;;0.60;99.90;;;;;;4970917;28;20086;-90
2021/03/20 06:24:57;;;;;;;19.42;3.78;;;0.60;99.90;;;;;;4973438;28;20043;-91
2021/03/20 06:27:39;;;;;;;5.18;3.45;;;0.60;99.90;;;;;;4949894;28;20410;-91
2021/03/20 06:30:27;;;;;;;9.57;3.60;;;0.60;99.90;;;;;;4983812;28;20046;-91
2021/03/20 06:33:25;;;;;;;5.85;3.53;;;0.70;99.90;;;;;;4967127;28;20066;-91
2021/03/20 06:36:08;;;;;;;7.80;3.25;;;0.70;99.90;;;;;;4966168;28;20499;-92
2021/03/20 06:38:56;;;;;;;13.63;3.63;;;0.70;99.90;;;;;;4969843;28;20113;-92
2021/03/20 06:41:22;;;;;;;7.47;3.60;;;0.70;99.90;;;;;;4969662;28;20039;-90
2021/03/20 06:43:54;;;;;;;4.82;3.30;;;0.80;99.90;;;;;;4965853;28;20070;-92
2021/03/20 06:46:34;;;;;;;4.28;3.15;;;0.80;99.90;;;;;;4966849;28;20039;-91
2021/03/20 06:49:01;;;;;;;5.55;3.50;;;0.80;99.90;;;;;;4969690;28;20054;-91
2021/03/20 06:51:28;;;;;;;6.28;4.15;;;0.90;99.90;;;;;;4972146;28;20058;-92
2021/03/20 06:54:04;;;;;;;6.68;3.67;;;1.00;99.90;;;;;;4973150;28;20703;-93
2021/03/20 06:56:35;;;;;;;6.82;3.50;;;0.80;99.90;;;;;;4980882;28;20070;-93
2021/03/20 06:59:09;;;;;;;8.15;3.67;;;1.20;99.90;;;;;;4971594;28;20074;-93
2021/03/20 07:02:17;;;;;;;10.68;3.50;;;0.90;99.90;;;;;;4970863;28;20097;-92
2021/03/20 07:05:20;;;;;;;4.00;3.60;;;0.90;99.90;;;;;;4987428;28;20064;-94
2021/03/20 07:08:17;;;;;;;6.85;3.30;;;0.90;99.90;;;;;;4967388;28;20067;-91
2021/03/20 07:10:51;;;;;;;5.53;3.30;;;1.00;99.90;;;;;;4957763;28;20062;-92
2021/03/20 07:13:44;;;;;;;5.80;3.55;;;1.20;99.90;;;;;;4986439;28;20043;-93
2021/03/20 07:16:13;;;;;;;5.63;3.65;;;1.10;99.90;;;;;;4966685;28;20047;-94
2021/03/20 07:19:13;;;;;;;5.38;3.67;;;1.10;99.90;;;;;;4953238;28;20499;-93
2021/03/20 07:21:42;;;;;;;7.30;3.40;;;1.20;99.90;;;;;;4984684;28;20043;-94
2021/03/20 07:24:29;;;;;;;4.57;3.50;;;1.20;99.90;;;;;;4956203;28;20414;-93
2021/03/20 07:26:58;;;;;;;9.57;3.75;;;1.30;99.90;;;;;;4969510;28;20042;-94
2021/03/20 07:29:40;;;;;;;5.97;3.83;;;1.30;99.90;;;;;;4980506;28;20046;-94
2021/03/20 07:32:07;;;;;;;6.60;3.53;;;1.40;99.90;;;;;;4970932;28;20050;-94
2021/03/20 07:34:34;;;;;;;6.32;4.55;;;1.50;99.90;;;;;;4973253;28;20395;-95
2021/03/20 07:37:12;;;;;;;8.90;3.72;;;1.50;99.90;;;;;;4974476;28;20042;-95
2021/03/20 07:39:47;;;;;;;11.60;3.10;;;1.40;99.90;;;;;;5004066;28;20479;-93
2021/03/20 07:42:26;;;;;;;5.00;3.00;;;1.50;99.90;;;;;;4987405;28;20043;-93
2021/03/20 07:44:55;;;;;;;9.88;3.70;;;1.40;99.90;;;;;;4970179;28;20047;-91
2021/03/20 07:47:24;;;;;;;9.23;3.53;;;1.40;99.90;;;;;;4973153;28;20050;-94
2021/03/20 07:50:18;;;;;;;8.52;3.95;;;1.40;99.90;;;;;;4971459;28;20126;-93
2021/03/20 07:52:59;;;;;;;5.50;3.08;;;1.40;99.90;;;;;;4990484;28;20105;-95
2021/03/20 07:55:26;;;;;;;8.10;3.03;;;1.40;99.90;;;;;;4972141;28;20118;-93
2021/03/20 07:57:57;;;;;;;4.50;3.47;;;1.50;99.90;;;;;;4982762;28;20046;-93
2021/03/20 08:00:26;;;;;;;9.25;3.67;;;1.50;99.90;;;;;;4972144;28;20055;-93
2021/03/20 08:02:52;;;;;;;12.10;4.13;;;1.60;99.90;;;;;;4957128;28;20058;-92
2021/03/20 08:05:18;;;;;;;6.05;3.55;;;1.90;99.90;;;;;;4979104;28;20073;-91
2021/03/20 08:07:47;;;;;;;6.75;3.22;;;2.00;99.90;;;;;;4971711;28;20050;-96
2021/03/20 08:10:19;;;;;;;10.73;3.95;;;2.10;99.90;;;;;;4971390;28;20106;-92
2021/03/20 08:13:09;;;;;;;6.90;3.83;;;2.20;99.90;;;;;;4975779;28;20059;-94
2021/03/20 08:16:00;;;;;;;6.05;3.53;;;2.30;99.90;;;;;;4989409;28;20518;-93
2021/03/20 08:18:34;;;;;;;6.38;3.40;;;2.60;99.90;;;;;;4957822;28;20061;-92
2021/03/20 08:21:15;;;;;;;6.43;3.53;;;2.30;99.90;;;;;;4983621;28;20050;-92
2021/03/20 08:24:22;;;;;;;4.72;3.70;;;2.40;99.90;;;;;;4955206;28;20051;-92
2021/03/20 08:27:22;;;;;;;7.00;3.72;;;2.60;99.90;;;;;;4957274;28;20494;-93
2021/03/20 08:29:53;;;;;;;5.60;3.25;;;2.60;99.90;;;;;;4957155;28;20122;-92
2021/03/20 08:32:52;;;;;;;3.40;3.03;;;2.60;99.90;;;;;;4961128;28;20511;-94
2021/03/20 08:36:01;;;;;;;7.85;3.88;;;2.70;99.90;;;;;;4956646;28;20047;-93
2021/03/20 08:39:02;;;;;;;7.93;3.78;;;2.90;99.90;;;;;;4957889;28;20059;-94
2021/03/20 08:45:50;;;;;;;8.65;3.35;;;3.00;99.90;;;;;;4965070;28;20086;-93
2021/03/20 08:48:49;;;;;;;6.65;3.85;;;3.20;99.90;;;;;;4985125;28;20046;-93
2021/03/20 08:51:52;;;;;;;7.18;3.83;;;3.40;99.90;;;;;;4957756;28;20050;-92
2021/03/20 08:54:45;;;;;;;4.90;4.07;;;3.50;99.90;;;;;;4956341;28;20061;-94
2021/03/20 09:20:03;;;;;;;8.52;3.13;;;4.70;99.90;;;;;;4897680;29;20143;-93
2021/03/20 09:22:46;;;;;;;;;;;;;;;;;;;;;
2021/03/20 09:25:57;;;;;;;8.50;4.00;;;4.90;99.90;;;;;;4882432;29;20056;-94
2021/03/20 09:28:51;;;;;;;9.50;3.63;;;5.00;99.90;;;;;;4931560;29;20054;-93
2021/03/20 09:31:38;;;;;;;4.88;3.22;;;5.10;99.90;;;;;;4947649;28;20048;-94
2021/03/20 09:34:51;;;;;;;8.70;3.50;;;5.30;99.90;;;;;;4931500;29;20179;-94
2021/03/20 09:37:50;;;;;;;;;;;;;;;;;;;;;
2021/03/20 09:40:47;;;;;;;8.90;4.22;;;5.70;99.90;;;;;;4957390;28;20047;-94
2021/03/20 09:43:38;;;;;;;8.65;3.83;;;5.80;99.90;;;;;;4923784;28;20495;-94
2021/03/20 09:50:06;;;;;;;6.07;3.55;;;6.00;99.90;;;;;;4946821;29;20073;-93
2021/03/20 09:52:55;;;;;;;10.98;4.07;;;6.10;99.90;;;;;;4930507;28;20073;-94
2021/03/20 09:55:31;;;;;;;6.97;3.70;;;6.20;99.90;;;;;;4925903;28;20841;-94
2021/03/20 09:58:26;;;;;;;6.65;3.60;;;6.30;99.90;;;;;;4926916;29;20403;-93
2021/03/20 10:01:40;;;;;;;6.63;3.50;;;6.40;99.90;;;;;;4925699;29;20048;-94
2021/03/20 10:04:37;;;;;;;11.05;3.83;;;6.40;99.90;;;;;;4913083;29;20059;-94
2021/03/20 10:07:32;;;;;;;4.97;3.58;;;6.60;99.90;;;;;;4928814;28;20038;-94
2021/03/20 10:10:10;;;;;;;8.98;4.00;;;6.80;99.90;;;;;;4928149;29;20051;-93
2021/03/20 10:19:49;;;;;;;5.53;3.13;;;7.00;99.90;;;;;;4955990;28;20142;-92
2021/03/20 10:22:48;;;;;;;6.65;3.70;;;7.10;99.90;;;;;;4953628;28;20246;-93
2021/03/20 10:25:27;;;;;;;12.82;4.05;;;7.20;99.90;;;;;;4954446;28;20178;-94
2021/03/20 10:28:07;;;;;;;10.52;4.47;;;7.30;99.90;;;;;;4954470;28;20061;-94
2021/03/20 10:30:39;;;;;;;6.60;4.18;;;7.20;99.90;;;;;;4962805;28;20057;-93
2021/03/20 10:33:36;;;;;;;4.77;3.60;;;7.30;99.90;;;;;;4953472;28;20051;-94
2021/03/20 10:36:14;;;;;;;7.20;3.50;;;7.20;99.90;;;;;;4953399;28;20514;-92
2021/03/20 10:38:45;;;;;;;5.05;3.83;;;7.20;99.90;;;;;;4958934;28;20074;-93
2021/03/20 10:41:42;;;;;;;7.10;3.78;;;7.30;99.90;;;;;;4956072;28;20424;-94
2021/03/20 10:44:19;;;;;;;4.35;3.90;;;7.40;99.90;;;;;;4937567;28;20055;-93
2021/03/20 10:47:22;;;;;;;10.23;3.80;;;7.30;99.90;;;;;;4954991;28;20047;-94
2021/03/20 10:49:57;;;;;;;4.63;2.70;;;7.50;99.90;;;;;;4953534;28;20055;-94
2021/03/20 10:52:32;;;;;;;4.80;2.92;;;7.50;99.90;;;;;;4937978;28;20467;-93
2021/03/20 10:55:03;;;;;;;5.15;2.95;;;7.40;99.90;;;;;;4937408;28;20058;-93
2021/03/20 10:57:49;;;;;;;5.43;3.20;;;7.40;99.90;;;;;;4939173;28;20510;-93
2021/03/20 11:00:31;;;;;;;8.23;4.13;;;7.40;99.90;;;;;;4971518;28;20089;-94
2021/03/20 11:03:38;;;;;;;6.10;3.60;;;7.60;99.90;;;;;;4965678;28;20113;-94
2021/03/20 11:06:20;;;;;;;6.45;2.83;;;7.70;99.90;;;;;;4938168;28;20083;-94
2021/03/20 11:09:07;;;;;;;5.73;1.90;;;7.70;99.90;;;;;;4959392;28;20054;-94
2021/03/20 11:11:40;;;;;;;6.70;1.73;;;7.60;99.90;;;;;;4930691;28;20050;-93
2021/03/20 11:14:23;;;;;;;7.93;2.90;;;7.70;99.90;;;;;;4955989;28;20234;-93
2021/03/20 11:17:15;;;;;;;3.30;2.17;;;7.70;99.90;;;;;;4884306;28;1947654;-93
2021/03/20 11:19:42;;;;;;;7.80;3.50;;;7.80;99.90;;;;;;4966631;28;20046;-93
2021/03/20 11:22:29;;;;;;;4.20;2.92;;;7.80;99.90;;;;;;5000617;28;20042;-93
2021/03/20 11:25:01;;;;;;;8.05;3.17;;;7.80;99.90;;;;;;4974092;28;20156;-91
2021/03/20 11:27:34;;;;;;;3.80;2.45;;;7.90;99.90;;;;;;4968640;28;20554;-92
2021/03/20 11:30:20;;;;;;;3.25;2.30;;;7.80;99.90;;;;;;4958139;28;20058;-92
2021/03/20 11:32:48;;;;;;;8.30;3.55;;;7.60;99.90;;;;;;4972151;28;20046;-91
2021/03/20 11:35:23;;;;;;;8.43;3.47;;;7.70;99.90;;;;;;4956337;28;20051;-93
2021/03/20 11:38:00;;;;;;;2.85;2.05;;;7.80;99.90;;;;;;4955779;28;20066;-93
2021/03/20 11:40:41;;;;;;;2.58;1.77;;;7.80;99.90;;;;;;4958608;28;20058;-92
2021/03/20 11:43:30;;;;;;;4.55;3.05;;;7.70;99.90;;;;;;4989267;28;20074;-93
2021/03/20 11:46:24;;;;;;;6.15;3.22;;;7.80;99.90;;;;;;4986067;28;20050;-91
2021/03/20 11:49:35;;;;;;;;;;;;;;;;;;;;;
2021/03/20 11:53:04;;;;;;;6.30;3.60;;;7.90;99.90;;;;;;4894554;29;20061;-94
2021/03/20 11:55:37;;;;;;;9.15;3.00;;;7.90;99.90;;;;;;4888686;28;20052;-92
2021/03/20 11:58:11;;;;;;;7.70;2.38;;;7.80;99.90;;;;;;4975421;28;20109;-95
2021/03/20 12:00:40;;;;;;;4.78;3.45;;;7.60;99.90;;;;;;4984446;28;20121;-93
2021/03/20 12:03:35;;;;;;;5.88;3.25;;;7.60;99.90;;;;;;4976434;28;20054;-94
2021/03/20 12:06:16;;;;;;;6.47;2.17;;;7.50;99.90;;;;;;4997268;28;20057;-92
2021/03/20 12:08:54;;;;;;;13.88;2.83;;;7.60;99.90;;;;;;4977689;28;20069;-94
2021/03/20 12:11:44;;;;;;;7.20;3.70;;;7.60;99.90;;;;;;4973697;28;20073;-93
2021/03/20 12:14:45;;;;;;;4.87;2.70;;;7.60;99.90;;;;;;4965111;28;20061;-93
2021/03/20 12:17:25;;;;;;;14.75;4.25;;;7.60;99.90;;;;;;4957039;28;20086;-94
2021/03/20 12:20:29;;;;;;;12.80;4.25;;;7.60;99.90;;;;;;4963156;28;20046;-93
2021/03/20 12:22:56;;;;;;;7.25;2.90;;;7.70;99.90;;;;;;4973345;28;20078;-93
2021/03/20 12:25:29;;;;;;;11.00;3.13;;;7.70;99.90;;;;;;4977081;28;20070;-93
2021/03/20 12:28:31;;;;;;;4.20;2.17;;;7.70;99.90;;;;;;4972003;28;20113;-93
2021/03/20 12:31:04;;;;;;;9.30;3.55;;;7.70;99.90;;;;;;4973386;28;20063;-93
2021/03/20 12:33:30;;;;;;;6.43;2.95;;;7.80;99.90;;;;;;4989732;28;20047;-92
2021/03/20 12:35:56;;;;;;;4.22;2.08;;;7.80;99.90;;;;;;4980853;28;20058;-93
2021/03/20 12:38:28;;;;;;;6.72;2.35;;;7.60;99.90;;;;;;4957301;28;20053;-92
2021/03/20 12:41:00;;;;;;;14.52;3.10;;;7.60;99.90;;;;;;4986641;28;20050;-93
2021/03/20 12:43:34;;;;;;;5.07;2.72;;;7.70;99.90;;;;;;4968743;28;20134;-94
2021/03/20 12:46:07;;;;;;;4.95;2.58;;;7.50;99.90;;;;;;4955563;28;20039;-94
2021/03/20 12:48:36;;;;;;;9.82;3.65;;;7.40;99.90;;;;;;4986050;28;20047;-93
2021/03/20 12:51:08;;;;;;;13.07;3.40;;;7.30;99.90;;;;;;4965708;28;20043;-93
2021/03/20 12:53:34;;;;;;;8.02;3.40;;;7.30;99.90;;;;;;4973353;28;20074;-93
2021/03/20 12:56:00;;;;;;;5.43;2.97;;;7.20;99.90;;;;;;4986411;28;20055;-93
2021/03/20 12:58:26;;;;;;;9.07;3.50;;;7.20;99.90;;;;;;4983576;28;20101;-93
2021/03/20 13:00:53;;;;;;;7.38;3.50;;;7.20;99.90;;;;;;4989445;28;20038;-93
2021/03/20 13:03:20;;;;;;;5.70;3.10;;;7.10;99.90;;;;;;4989069;28;20101;-94
2021/03/20 13:05:46;;;;;;;13.90;3.28;;;7.10;99.90;;;;;;4957362;28;20054;-93
2021/03/20 13:08:13;;;;;;;9.30;3.33;;;7.10;99.90;;;;;;4972285;28;20398;-94
2021/03/20 13:10:40;;;;;;;9.13;2.90;;;7.10;99.90;;;;;;4961138;28;20059;-94
2021/03/20 13:13:07;;;;;;;7.57;2.90;;;6.90;99.90;;;;;;4986376;28;20051;-93
2021/03/20 13:15:34;;;;;;;5.13;2.53;;;6.90;99.90;;;;;;4967067;28;20054;-93
2021/03/20 13:18:00;;;;;;;7.88;2.40;;;6.90;99.90;;;;;;4972531;28;20142;-93
2021/03/20 13:20:26;;;;;;;7.18;3.75;;;6.70;99.90;;;;;;4963561;28;20126;-94
2021/03/20 13:22:53;;;;;;;14.25;3.13;;;6.70;99.90;;;;;;4970749;28;20042;-94
2021/03/20 13:25:23;;;;;;;7.53;2.85;;;6.60;99.90;;;;;;4972879;28;20039;-93
2021/03/20 13:27:49;;;;;;;4.65;3.25;;;6.60;99.90;;;;;;4988223;28;20077;-93
2021/03/20 13:30:20;;;;;;;6.35;2.65;;;6.50;99.90;;;;;;4980230;28;20499;-95
2021/03/20 13:32:46;;;;;;;5.97;3.30;;;6.50;99.90;;;;;;4969506;28;20043;-93
2021/03/20 13:35:12;;;;;;;11.52;3.00;;;6.50;99.90;;;;;;4973254;28;20547;-96
2021/03/20 13:37:40;;;;;;;4.85;2.70;;;6.40;99.90;;;;;;4950487;28;20038;-93
2021/03/20 13:40:07;;;;;;;8.25;3.53;;;6.50;99.90;;;;;;4973817;28;20483;-94
2021/03/20 13:42:35;;;;;;;4.18;2.70;;;6.40;99.90;;;;;;4977620;28;20106;-93
2021/03/20 13:45:02;;;;;;;5.55;3.70;;;6.30;99.90;;;;;;4971221;28;20046;-93
2021/03/20 13:47:27;;;;;;;7.35;3.60;;;6.30;99.90;;;;;;4998453;28;20046;-93
2021/03/20 13:49:53;;;;;;;6.75;3.97;;;6.30;99.90;;;;;;4976907;28;20045;-93
2021/03/20 13:52:19;;;;;;;7.88;3.88;;;6.20;99.90;;;;;;4988252;28;20053;-93
2021/03/20 13:54:47;;;;;;;4.28;3.47;;;6.20;99.90;;;;;;4983388;28;20430;-94
2021/03/20 13:57:12;;;;;;;11.05;4.57;;;6.30;99.90;;;;;;4988431;28;20488;-94
2021/03/20 13:59:38;;;;;;;8.07;3.88;;;6.20;99.90;;;;;;4955932;28;20065;-94
2021/03/20 14:02:07;;;;;;;10.50;4.93;;;6.20;99.90;;;;;;4957727;28;20054;-93
2021/03/20 14:04:34;;;;;;;6.63;3.80;;;6.20;99.90;;;;;;4971773;28;20153;-93
2021/03/20 14:07:24;;;;;;;10.25;4.70;;;6.20;99.90;;;;;;4985767;28;20050;-94
2021/03/20 14:09:50;;;;;;;5.75;5.15;;;6.20;99.90;;;;;;4972408;28;20047;-93
2021/03/20 14:12:16;;;;;;;10.77;5.63;;;6.30;99.90;;;;;;4956130;28;20384;-96
2021/03/20 14:14:46;;;;;;;13.57;4.60;;;6.20;99.90;;;;;;4949961;28;20058;-93
2021/03/20 14:17:12;;;;;;;7.78;4.50;;;6.20;99.90;;;;;;4962682;28;20055;-93
2021/03/20 14:19:38;;;;;;;11.10;5.03;;;6.20;99.90;;;;;;4952374;28;20386;-92
2021/03/20 14:22:05;;;;;;;5.75;3.88;;;6.20;99.90;;;;;;4980253;28;20050;-93
2021/03/20 14:24:31;;;;;;;11.50;5.95;;;6.20;99.90;;;;;;4971414;28;20074;-93
2021/03/20 14:27:00;;;;;;;10.93;7.75;;;6.10;99.90;;;;;;4972159;28;20082;-93
2021/03/20 14:29:26;;;;;;;4.05;3.65;;;6.10;99.90;;;;;;4972315;28;20066;-93
2021/03/20 14:31:52;;;;;;;5.63;4.47;;;6.10;99.90;;;;;;4967349;28;20058;-93
2021/03/20 14:34:18;;;;;;;4.97;4.47;;;6.20;99.90;;;;;;4984410;28;20054;-94
2021/03/20 14:36:44;;;;;;;5.13;4.07;;;6.40;99.90;;;;;;4965731;28;20049;-93
2021/03/20 14:39:10;;;;;;;9.15;6.18;;;6.20;99.90;;;;;;4964241;28;20134;-93
2021/03/20 14:41:36;;;;;;;5.45;4.93;;;6.30;99.90;;;;;;4971404;28;20665;-93
2021/03/20 14:44:03;;;;;;;5.90;4.45;;;6.40;99.90;;;;;;4955911;28;20043;-93
2021/03/20 14:46:28;;;;;;;6.45;4.60;;;6.40;99.90;;;;;;4972339;28;20046;-93
2021/03/20 14:48:54;;;;;;;5.28;2.67;;;6.30;99.90;;;;;;4973383;28;20427;-93
2021/03/20 14:51:20;;;;;;;5.82;5.00;;;6.40;99.90;;;;;;4966144;28;20097;-95
2021/03/20 14:53:48;;;;;;;4.90;3.00;;;6.40;99.90;;;;;;4984486;28;20054;-93
2021/03/20 14:56:14;;;;;;;6.60;4.00;;;6.30;99.90;;;;;;4964961;28;20046;-93
2021/03/20 14:58:40;;;;;;;6.53;3.53;;;6.30;99.90;;;;;;4984539;28;20058;-93
2021/03/20 15:01:06;;;;;;;4.55;3.28;;;6.30;99.90;;;;;;4971501;28;20070;-93
2021/03/20 15:03:32;;;;;;;4.15;3.45;;;6.30;99.90;;;;;;4954701;28;20043;-94
2021/03/20 15:05:59;;;;;;;7.15;4.93;;;6.30;99.90;;;;;;4980448;28;20054;-94
2021/03/20 15:08:26;;;;;;;4.18;3.78;;;6.30;99.90;;;;;;4976943;28;20042;-94
2021/03/20 15:10:55;;;;;;;3.38;3.17;;;6.30;99.90;;;;;;4971682;28;20055;-93
2021/03/20 15:13:24;;;;;;;6.70;5.13;;;6.20;99.90;;;;;;4984483;28;20047;-94
2021/03/20 15:15:51;;;;;;;5.20;4.07;;;6.20;99.90;;;;;;4967504;28;20106;-93
2021/03/20 15:18:30;;;;;;;4.60;3.90;;;6.20;99.90;;;;;;4970051;28;20050;-94
2021/03/20 15:20:57;;;;;;;7.07;4.90;;;6.20;99.90;;;;;;4969594;28;20518;-93
2021/03/20 15:23:33;;;;;;;4.35;4.00;;;6.20;99.90;;;;;;4971237;28;20050;-94
2021/03/20 15:26:01;;;;;;;6.07;4.53;;;6.30;99.90;;;;;;4987159;28;20054;-92
2021/03/20 15:28:27;;;;;;;5.28;4.78;;;6.30;99.90;;;;;;4970910;28;20057;-93
2021/03/20 15:30:55;;;;;;;7.95;5.18;;;6.20;99.90;;;;;;4971379;28;20039;-93
2021/03/20 15:33:21;;;;;;;4.97;4.43;;;6.20;99.90;;;;;;4964513;28;20058;-93
2021/03/20 15:35:48;;;;;;;4.90;4.40;;;6.20;99.90;;;;;;4970980;28;20051;-92
2021/03/20 15:38:17;;;;;;;5.63;2.65;;;6.30;99.90;;;;;;4971296;28;20051;-92
2021/03/20 15:40:49;;;;;;;6.93;3.15;;;6.20;99.90;;;;;;4970973;28;20046;-92
2021/03/20 15:43:22;;;;;;;3.83;2.75;;;6.30;99.90;;;;;;4987482;28;20121;-92
2021/03/20 15:45:52;;;;;;;1.92;1.45;;;6.30;99.90;;;;;;4971467;28;20411;-92
2021/03/20 15:48:19;;;;;;;2.95;1.40;;;6.30;99.90;;;;;;4974745;28;20039;-92
2021/03/20 15:50:52;;;;;;;2.88;1.80;;;6.30;99.90;;;;;;4972673;28;20074;-92
2021/03/20 15:53:19;;;;;;;1.83;1.70;;;6.30;99.90;;;;;;4974543;28;20521;-91
2021/03/20 15:55:48;;;;;;;3.22;1.67;;;6.30;99.90;;;;;;4973043;28;20030;-92
2021/03/20 15:58:16;;;;;;;3.25;1.50;;;6.30;99.90;;;;;;4972956;28;20059;-93
2021/03/20 16:00:42;;;;;;;10.48;1.95;;;6.40;99.90;;;;;;4987973;28;20046;-93
2021/03/20 16:03:08;;;;;;;2.00;1.25;;;6.40;99.90;;;;;;4973672;28;20038;-93
2021/03/20 16:05:35;;;;;;;4.85;1.45;;;6.40;99.90;;;;;;4971721;28;20495;-92
2021/03/20 16:08:02;;;;;;;3.22;1.90;;;6.40;99.90;;;;;;4972545;28;20053;-92
2021/03/20 16:10:30;;;;;;;1.83;0.65;;;6.50;99.90;;;;;;4960531;28;20550;-94
2021/03/20 16:12:56;;;;;;;3.55;2.20;;;6.40;99.90;;;;;;4989707;28;20054;-92
2021/03/20 16:15:23;;;;;;;5.18;2.30;;;6.40;99.90;;;;;;4956784;28;20165;-92
2021/03/20 16:17:49;;;;;;;4.60;2.10;;;6.40;99.90;;;;;;4944787;28;20061;-93
2021/03/20 16:20:30;;;;;;;5.80;2.03;;;6.40;99.90;;;;;;4956641;28;20050;-94